sensor_id;sensor_type;location;lat;lon;timestamp;P1;durP1;ratioP1;P2;durP2;ratioP2
16093;SDS011;8151;47.824;12.092;2022-10-31T00:01:22;5.93;;;3.23;;
16093;SDS011;8151;47.824;12.092;2022-10-31T00:03:52;9.13;;;3.63;;
16093;SDS011;8151;47.824;12.092;2022-10-31T00:06:21;10.10;;;4.00;;
16093;SDS011;8151;47.824;12.092;2022-10-31T00:08:51;10.83;;;3.60;;
16093;SDS011;8151;47.824;12.092;2022-10-31T00:11:21;6.73;;;4.00;;
16093;SDS011;8151;47.824;12.092;2022-10-31T00:13:51;9.40;;;4.13;;
16093;SDS011;8151;47.824;12.092;2022-10-31T00:16:20;9.87;;;4.20;;
16093;SDS011;8151;47.824;12.092;2022-10-31T00:18:50;7.80;;;3.43;;
16093;SDS011;8151;47.824;12.092;2022-10-31T00:21:20;6.93;;;3.43;;
16093;SDS011;8151;47.824;12.092;2022-10-31T00:23:49;5.70;;;3.30;;
16093;SDS011;8151;47.824;12.092;2022-10-31T00:26:17;10.07;;;3.40;;
16093;SDS011;8151;47.824;12.092;2022-10-31T00:28:46;8.07;;;3.60;;
16093;SDS011;8151;47.824;12.092;2022-10-31T00:31:16;7.83;;;3.57;;
16093;SDS011;8151;47.824;12.092;2022-10-31T00:33:45;6.80;;;3.57;;
16093;SDS011;8151;47.824;12.092;2022-10-31T00:36:15;8.13;;;3.30;;
16093;SDS011;8151;47.824;12.092;2022-10-31T00:38:45;11.23;;;3.57;;
16093;SDS011;8151;47.824;12.092;2022-10-31T00:41:14;5.70;;;3.40;;
16093;SDS011;8151;47.824;12.092;2022-10-31T00:43:44;5.67;;;3.33;;
16093;SDS011;8151;47.824;12.092;2022-10-31T00:46:12;7.47;;;3.30;;
16093;SDS011;8151;47.824;12.092;2022-10-31T00:48:42;7.07;;;3.40;;
16093;SDS011;8151;47.824;12.092;2022-10-31T00:51:11;9.07;;;3.90;;
16093;SDS011;8151;47.824;12.092;2022-10-31T00:53:39;7.23;;;3.40;;
16093;SDS011;8151;47.824;12.092;2022-10-31T00:56:07;6.77;;;3.43;;
16093;SDS011;8151;47.824;12.092;2022-10-31T00:58:36;5.50;;;3.03;;
16093;SDS011;8151;47.824;12.092;2022-10-31T01:01:04;4.90;;;3.40;;
16093;SDS011;8151;47.824;12.092;2022-10-31T01:03:33;9.87;;;2.93;;
16093;SDS011;8151;47.824;12.092;2022-10-31T01:06:04;5.33;;;3.00;;
16093;SDS011;8151;47.824;12.092;2022-10-31T01:08:34;4.43;;;2.87;;
16093;SDS011;8151;47.824;12.092;2022-10-31T01:11:04;7.90;;;3.17;;
16093;SDS011;8151;47.824;12.092;2022-10-31T01:13:35;7.07;;;3.13;;
16093;SDS011;8151;47.824;12.092;2022-10-31T01:16:03;4.87;;;3.20;;
16093;SDS011;8151;47.824;12.092;2022-10-31T01:18:34;9.27;;;3.17;;
16093;SDS011;8151;47.824;12.092;2022-10-31T01:21:05;6.77;;;3.00;;
16093;SDS011;8151;47.824;12.092;2022-10-31T01:23:34;8.87;;;3.17;;
16093;SDS011;8151;47.824;12.092;2022-10-31T01:26:04;8.83;;;3.10;;
16093;SDS011;8151;47.824;12.092;2022-10-31T01:28:35;6.40;;;3.57;;
16093;SDS011;8151;47.824;12.092;2022-10-31T01:31:05;6.17;;;2.70;;
16093;SDS011;8151;47.824;12.092;2022-10-31T01:33:35;6.50;;;2.90;;
16093;SDS011;8151;47.824;12.092;2022-10-31T01:36:12;8.67;;;3.33;;
16093;SDS011;8151;47.824;12.092;2022-10-31T01:38:43;6.87;;;3.03;;
16093;SDS011;8151;47.824;12.092;2022-10-31T01:41:12;10.33;;;3.53;;
16093;SDS011;8151;47.824;12.092;2022-10-31T01:43:44;5.77;;;3.23;;
16093;SDS011;8151;47.824;12.092;2022-10-31T01:46:13;7.97;;;2.90;;
16093;SDS011;8151;47.824;12.092;2022-10-31T01:48:45;7.17;;;3.17;;
16093;SDS011;8151;47.824;12.092;2022-10-31T01:51:15;7.13;;;2.50;;
16093;SDS011;8151;47.824;12.092;2022-10-31T01:53:47;5.57;;;2.87;;
16093;SDS011;8151;47.824;12.092;2022-10-31T01:56:19;6.43;;;3.10;;
16093;SDS011;8151;47.824;12.092;2022-10-31T01:58:48;6.53;;;2.67;;
16093;SDS011;8151;47.824;12.092;2022-10-31T02:01:16;6.13;;;2.70;;
16093;SDS011;8151;47.824;12.092;2022-10-31T02:03:46;9.13;;;2.83;;
16093;SDS011;8151;47.824;12.092;2022-10-31T02:06:21;7.07;;;3.00;;
16093;SDS011;8151;47.824;12.092;2022-10-31T02:08:57;6.27;;;2.90;;
16093;SDS011;8151;47.824;12.092;2022-10-31T02:11:28;5.23;;;2.87;;
16093;SDS011;8151;47.824;12.092;2022-10-31T02:13:57;6.73;;;2.83;;
16093;SDS011;8151;47.824;12.092;2022-10-31T02:16:27;7.40;;;3.07;;
16093;SDS011;8151;47.824;12.092;2022-10-31T02:18:55;5.63;;;3.00;;
16093;SDS011;8151;47.824;12.092;2022-10-31T02:21:27;5.40;;;2.90;;
16093;SDS011;8151;47.824;12.092;2022-10-31T02:30:04;6.43;;;2.73;;
16093;SDS011;8151;47.824;12.092;2022-10-31T02:35:45;7.03;;;2.90;;
16093;SDS011;8151;47.824;12.092;2022-10-31T02:38:28;7.80;;;3.07;;
16093;SDS011;8151;47.824;12.092;2022-10-31T02:41:06;5.07;;;2.77;;
16093;SDS011;8151;47.824;12.092;2022-10-31T02:43:45;7.83;;;3.03;;
16093;SDS011;8151;47.824;12.092;2022-10-31T02:46:23;5.43;;;2.77;;
16093;SDS011;8151;47.824;12.092;2022-10-31T02:48:58;6.47;;;2.90;;
16093;SDS011;8151;47.824;12.092;2022-10-31T02:51:33;6.13;;;2.50;;
16093;SDS011;8151;47.824;12.092;2022-10-31T02:54:01;4.93;;;3.37;;
16093;SDS011;8151;47.824;12.092;2022-10-31T02:56:30;6.57;;;2.50;;
16093;SDS011;8151;47.824;12.092;2022-10-31T02:59:00;6.20;;;2.70;;
16093;SDS011;8151;47.824;12.092;2022-10-31T03:01:33;12.00;;;2.97;;
16093;SDS011;8151;47.824;12.092;2022-10-31T03:07:41;7.03;;;3.17;;
16093;SDS011;8151;47.824;12.092;2022-10-31T03:10:16;6.30;;;3.00;;
16093;SDS011;8151;47.824;12.092;2022-10-31T03:12:55;6.73;;;3.57;;
16093;SDS011;8151;47.824;12.092;2022-10-31T03:15:32;5.83;;;3.23;;
16093;SDS011;8151;47.824;12.092;2022-10-31T03:18:04;6.00;;;2.83;;
16093;SDS011;8151;47.824;12.092;2022-10-31T03:20:40;6.77;;;3.07;;
16093;SDS011;8151;47.824;12.092;2022-10-31T03:23:14;5.73;;;2.57;;
16093;SDS011;8151;47.824;12.092;2022-10-31T03:25:45;7.77;;;3.07;;
16093;SDS011;8151;47.824;12.092;2022-10-31T03:28:16;4.57;;;2.50;;
16093;SDS011;8151;47.824;12.092;2022-10-31T03:30:49;9.30;;;2.80;;
16093;SDS011;8151;47.824;12.092;2022-10-31T03:33:21;6.70;;;2.97;;
16093;SDS011;8151;47.824;12.092;2022-10-31T03:35:55;7.07;;;2.87;;
16093;SDS011;8151;47.824;12.092;2022-10-31T03:38:28;6.00;;;2.80;;
16093;SDS011;8151;47.824;12.092;2022-10-31T03:40:57;5.37;;;2.70;;
16093;SDS011;8151;47.824;12.092;2022-10-31T03:43:30;5.07;;;3.20;;
16093;SDS011;8151;47.824;12.092;2022-10-31T03:46:04;8.40;;;3.40;;
16093;SDS011;8151;47.824;12.092;2022-10-31T03:48:34;7.33;;;3.00;;
16093;SDS011;8151;47.824;12.092;2022-10-31T03:51:05;9.43;;;2.50;;
16093;SDS011;8151;47.824;12.092;2022-10-31T03:53:39;6.53;;;3.03;;
16093;SDS011;8151;47.824;12.092;2022-10-31T03:56:15;7.57;;;2.80;;
16093;SDS011;8151;47.824;12.092;2022-10-31T03:58:51;6.23;;;3.00;;
16093;SDS011;8151;47.824;12.092;2022-10-31T04:01:25;9.17;;;2.63;;
16093;SDS011;8151;47.824;12.092;2022-10-31T04:03:57;7.40;;;3.20;;
16093;SDS011;8151;47.824;12.092;2022-10-31T04:06:27;8.17;;;3.20;;
16093;SDS011;8151;47.824;12.092;2022-10-31T04:09:00;10.47;;;3.23;;
16093;SDS011;8151;47.824;12.092;2022-10-31T04:11:33;6.10;;;3.20;;
16093;SDS011;8151;47.824;12.092;2022-10-31T04:14:04;6.50;;;2.97;;
16093;SDS011;8151;47.824;12.092;2022-10-31T04:16:34;7.37;;;2.77;;
16093;SDS011;8151;47.824;12.092;2022-10-31T04:19:04;9.83;;;2.87;;
16093;SDS011;8151;47.824;12.092;2022-10-31T04:21:33;6.73;;;3.17;;
16093;SDS011;8151;47.824;12.092;2022-10-31T04:24:02;6.10;;;2.70;;
16093;SDS011;8151;47.824;12.092;2022-10-31T04:26:31;5.90;;;2.47;;
16093;SDS011;8151;47.824;12.092;2022-10-31T04:28:59;6.37;;;2.90;;
16093;SDS011;8151;47.824;12.092;2022-10-31T04:31:27;4.90;;;2.30;;
16093;SDS011;8151;47.824;12.092;2022-10-31T04:33:56;3.20;;;2.40;;
16093;SDS011;8151;47.824;12.092;2022-10-31T04:36:24;7.27;;;2.73;;
16093;SDS011;8151;47.824;12.092;2022-10-31T04:38:54;7.47;;;2.70;;
16093;SDS011;8151;47.824;12.092;2022-10-31T04:41:23;3.53;;;2.20;;
16093;SDS011;8151;47.824;12.092;2022-10-31T04:43:51;5.20;;;2.70;;
16093;SDS011;8151;47.824;12.092;2022-10-31T04:46:19;4.13;;;2.53;;
16093;SDS011;8151;47.824;12.092;2022-10-31T04:48:48;6.17;;;2.90;;
16093;SDS011;8151;47.824;12.092;2022-10-31T04:51:16;4.60;;;2.60;;
16093;SDS011;8151;47.824;12.092;2022-10-31T04:53:45;5.47;;;2.93;;
16093;SDS011;8151;47.824;12.092;2022-10-31T04:56:14;3.17;;;2.27;;
16093;SDS011;8151;47.824;12.092;2022-10-31T04:58:43;13.43;;;3.40;;
16093;SDS011;8151;47.824;12.092;2022-10-31T05:01:11;6.97;;;2.90;;
16093;SDS011;8151;47.824;12.092;2022-10-31T05:03:40;7.00;;;2.40;;
16093;SDS011;8151;47.824;12.092;2022-10-31T05:06:08;5.83;;;2.33;;
16093;SDS011;8151;47.824;12.092;2022-10-31T05:08:37;4.37;;;2.20;;
16093;SDS011;8151;47.824;12.092;2022-10-31T05:11:05;4.40;;;2.17;;
16093;SDS011;8151;47.824;12.092;2022-10-31T05:13:35;8.67;;;2.83;;
16093;SDS011;8151;47.824;12.092;2022-10-31T05:16:03;4.67;;;2.57;;
16093;SDS011;8151;47.824;12.092;2022-10-31T05:18:32;4.63;;;2.10;;
16093;SDS011;8151;47.824;12.092;2022-10-31T05:21:01;10.90;;;2.73;;
16093;SDS011;8151;47.824;12.092;2022-10-31T05:23:29;3.40;;;2.10;;
16093;SDS011;8151;47.824;12.092;2022-10-31T05:25:57;10.27;;;2.43;;
16093;SDS011;8151;47.824;12.092;2022-10-31T05:28:26;6.63;;;2.90;;
16093;SDS011;8151;47.824;12.092;2022-10-31T05:30:55;5.53;;;2.53;;
16093;SDS011;8151;47.824;12.092;2022-10-31T05:33:25;5.27;;;2.43;;
16093;SDS011;8151;47.824;12.092;2022-10-31T05:35:53;4.47;;;2.30;;
16093;SDS011;8151;47.824;12.092;2022-10-31T05:38:22;5.27;;;2.50;;
16093;SDS011;8151;47.824;12.092;2022-10-31T05:40:50;6.23;;;2.50;;
16093;SDS011;8151;47.824;12.092;2022-10-31T05:43:24;4.50;;;2.40;;
16093;SDS011;8151;47.824;12.092;2022-10-31T05:45:52;4.20;;;2.70;;
16093;SDS011;8151;47.824;12.092;2022-10-31T05:48:22;5.17;;;2.60;;
16093;SDS011;8151;47.824;12.092;2022-10-31T05:50:51;10.43;;;3.07;;
16093;SDS011;8151;47.824;12.092;2022-10-31T05:53:19;7.03;;;2.70;;
16093;SDS011;8151;47.824;12.092;2022-10-31T05:55:48;6.87;;;2.80;;
16093;SDS011;8151;47.824;12.092;2022-10-31T05:58:16;9.07;;;2.73;;
16093;SDS011;8151;47.824;12.092;2022-10-31T06:00:44;6.47;;;2.93;;
16093;SDS011;8151;47.824;12.092;2022-10-31T06:03:13;5.47;;;2.90;;
16093;SDS011;8151;47.824;12.092;2022-10-31T06:05:43;3.97;;;2.70;;
16093;SDS011;8151;47.824;12.092;2022-10-31T06:08:25;5.13;;;3.20;;
16093;SDS011;8151;47.824;12.092;2022-10-31T06:10:55;8.53;;;4.07;;
16093;SDS011;8151;47.824;12.092;2022-10-31T06:13:23;14.43;;;7.77;;
16093;SDS011;8151;47.824;12.092;2022-10-31T06:15:51;13.10;;;9.00;;
16093;SDS011;8151;47.824;12.092;2022-10-31T06:18:20;18.13;;;8.00;;
16093;SDS011;8151;47.824;12.092;2022-10-31T06:20:50;13.47;;;6.47;;
16093;SDS011;8151;47.824;12.092;2022-10-31T06:23:18;12.10;;;6.43;;
16093;SDS011;8151;47.824;12.092;2022-10-31T06:25:48;17.00;;;9.13;;
16093;SDS011;8151;47.824;12.092;2022-10-31T06:28:17;15.80;;;6.23;;
16093;SDS011;8151;47.824;12.092;2022-10-31T06:30:45;11.20;;;5.43;;
16093;SDS011;8151;47.824;12.092;2022-10-31T06:33:14;70.03;;;32.13;;
16093;SDS011;8151;47.824;12.092;2022-10-31T06:35:44;122.47;;;50.27;;
16093;SDS011;8151;47.824;12.092;2022-10-31T06:38:15;68.47;;;29.93;;
16093;SDS011;8151;47.824;12.092;2022-10-31T06:40:43;16.83;;;6.47;;
16093;SDS011;8151;47.824;12.092;2022-10-31T06:43:11;19.60;;;6.07;;
16093;SDS011;8151;47.824;12.092;2022-10-31T06:45:41;9.87;;;3.20;;
16093;SDS011;8151;47.824;12.092;2022-10-31T06:48:09;7.83;;;2.90;;
16093;SDS011;8151;47.824;12.092;2022-10-31T06:50:43;12.90;;;2.83;;
16093;SDS011;8151;47.824;12.092;2022-10-31T06:53:12;5.63;;;2.40;;
16093;SDS011;8151;47.824;12.092;2022-10-31T06:55:42;5.67;;;2.70;;
16093;SDS011;8151;47.824;12.092;2022-10-31T06:58:11;17.40;;;3.47;;
16093;SDS011;8151;47.824;12.092;2022-10-31T07:00:39;8.63;;;3.23;;
16093;SDS011;8151;47.824;12.092;2022-10-31T07:03:10;8.93;;;2.80;;
16093;SDS011;8151;47.824;12.092;2022-10-31T07:05:39;9.23;;;3.20;;
16093;SDS011;8151;47.824;12.092;2022-10-31T07:08:10;6.67;;;3.17;;
16093;SDS011;8151;47.824;12.092;2022-10-31T07:10:40;9.30;;;2.70;;
16093;SDS011;8151;47.824;12.092;2022-10-31T07:13:11;3.80;;;2.60;;
16093;SDS011;8151;47.824;12.092;2022-10-31T07:15:41;4.87;;;2.87;;
16093;SDS011;8151;47.824;12.092;2022-10-31T07:18:11;9.37;;;2.90;;
16093;SDS011;8151;47.824;12.092;2022-10-31T07:20:40;7.43;;;2.80;;
16093;SDS011;8151;47.824;12.092;2022-10-31T07:23:09;2.97;;;2.40;;
16093;SDS011;8151;47.824;12.092;2022-10-31T07:25:38;6.33;;;2.90;;
16093;SDS011;8151;47.824;12.092;2022-10-31T07:28:07;7.10;;;3.03;;
16093;SDS011;8151;47.824;12.092;2022-10-31T07:30:37;5.03;;;2.80;;
16093;SDS011;8151;47.824;12.092;2022-10-31T07:33:05;7.97;;;2.50;;
16093;SDS011;8151;47.824;12.092;2022-10-31T07:35:34;5.20;;;2.63;;
16093;SDS011;8151;47.824;12.092;2022-10-31T07:38:09;4.90;;;2.47;;
16093;SDS011;8151;47.824;12.092;2022-10-31T07:40:38;6.13;;;3.20;;
16093;SDS011;8151;47.824;12.092;2022-10-31T07:43:08;6.97;;;3.13;;
16093;SDS011;8151;47.824;12.092;2022-10-31T07:45:41;5.57;;;3.10;;
16093;SDS011;8151;47.824;12.092;2022-10-31T07:48:10;10.33;;;3.43;;
16093;SDS011;8151;47.824;12.092;2022-10-31T07:50:38;21.23;;;14.43;;
16093;SDS011;8151;47.824;12.092;2022-10-31T07:53:07;15.00;;;9.20;;
16093;SDS011;8151;47.824;12.092;2022-10-31T07:55:37;6.10;;;4.10;;
16093;SDS011;8151;47.824;12.092;2022-10-31T07:58:07;7.47;;;2.70;;
16093;SDS011;8151;47.824;12.092;2022-10-31T08:00:37;9.63;;;2.67;;
16093;SDS011;8151;47.824;12.092;2022-10-31T08:03:08;5.97;;;2.20;;
16093;SDS011;8151;47.824;12.092;2022-10-31T08:05:38;9.83;;;2.50;;
16093;SDS011;8151;47.824;12.092;2022-10-31T08:08:07;6.13;;;3.00;;
16093;SDS011;8151;47.824;12.092;2022-10-31T08:10:36;6.23;;;2.77;;
16093;SDS011;8151;47.824;12.092;2022-10-31T08:13:05;7.73;;;2.27;;
16093;SDS011;8151;47.824;12.092;2022-10-31T08:15:35;6.47;;;2.77;;
16093;SDS011;8151;47.824;12.092;2022-10-31T08:18:10;7.57;;;2.73;;
16093;SDS011;8151;47.824;12.092;2022-10-31T08:20:39;5.00;;;2.47;;
16093;SDS011;8151;47.824;12.092;2022-10-31T08:23:09;7.63;;;2.43;;
16093;SDS011;8151;47.824;12.092;2022-10-31T08:25:38;4.67;;;2.60;;
16093;SDS011;8151;47.824;12.092;2022-10-31T08:28:06;8.73;;;2.57;;
16093;SDS011;8151;47.824;12.092;2022-10-31T08:30:37;4.97;;;2.33;;
16093;SDS011;8151;47.824;12.092;2022-10-31T08:33:10;8.03;;;2.40;;
16093;SDS011;8151;47.824;12.092;2022-10-31T08:35:40;10.57;;;3.07;;
16093;SDS011;8151;47.824;12.092;2022-10-31T08:38:09;9.27;;;1.97;;
16093;SDS011;8151;47.824;12.092;2022-10-31T08:40:39;4.80;;;2.80;;
16093;SDS011;8151;47.824;12.092;2022-10-31T08:43:08;8.80;;;2.57;;
16093;SDS011;8151;47.824;12.092;2022-10-31T08:45:39;4.67;;;2.67;;
16093;SDS011;8151;47.824;12.092;2022-10-31T08:48:10;7.87;;;3.00;;
16093;SDS011;8151;47.824;12.092;2022-10-31T08:50:40;8.23;;;3.20;;
16093;SDS011;8151;47.824;12.092;2022-10-31T08:53:10;9.80;;;3.30;;
16093;SDS011;8151;47.824;12.092;2022-10-31T08:55:40;9.90;;;5.53;;
16093;SDS011;8151;47.824;12.092;2022-10-31T08:58:10;9.67;;;5.03;;
16093;SDS011;8151;47.824;12.092;2022-10-31T09:00:40;10.30;;;5.70;;
16093;SDS011;8151;47.824;12.092;2022-10-31T09:03:11;16.43;;;5.60;;
16093;SDS011;8151;47.824;12.092;2022-10-31T09:05:41;15.77;;;6.57;;
16093;SDS011;8151;47.824;12.092;2022-10-31T09:08:10;13.50;;;6.03;;
16093;SDS011;8151;47.824;12.092;2022-10-31T09:10:42;13.47;;;4.30;;
16093;SDS011;8151;47.824;12.092;2022-10-31T09:13:12;11.70;;;4.40;;
16093;SDS011;8151;47.824;12.092;2022-10-31T09:15:42;15.37;;;6.80;;
16093;SDS011;8151;47.824;12.092;2022-10-31T09:18:13;16.23;;;9.13;;
16093;SDS011;8151;47.824;12.092;2022-10-31T09:20:44;12.17;;;6.97;;
16093;SDS011;8151;47.824;12.092;2022-10-31T09:23:14;13.50;;;7.10;;
16093;SDS011;8151;47.824;12.092;2022-10-31T09:25:44;12.43;;;6.53;;
16093;SDS011;8151;47.824;12.092;2022-10-31T09:28:18;13.50;;;6.57;;
16093;SDS011;8151;47.824;12.092;2022-10-31T09:30:48;13.50;;;5.20;;
16093;SDS011;8151;47.824;12.092;2022-10-31T09:33:19;19.30;;;8.07;;
16093;SDS011;8151;47.824;12.092;2022-10-31T09:35:48;15.93;;;6.30;;
16093;SDS011;8151;47.824;12.092;2022-10-31T09:38:17;6.73;;;3.90;;
16093;SDS011;8151;47.824;12.092;2022-10-31T09:40:47;12.63;;;7.87;;
16093;SDS011;8151;47.824;12.092;2022-10-31T09:43:22;11.27;;;4.60;;
16093;SDS011;8151;47.824;12.092;2022-10-31T09:45:59;8.87;;;3.63;;
16093;SDS011;8151;47.824;12.092;2022-10-31T09:48:40;12.93;;;5.10;;
16093;SDS011;8151;47.824;12.092;2022-10-31T09:51:24;10.77;;;3.60;;
16093;SDS011;8151;47.824;12.092;2022-10-31T09:53:59;11.47;;;3.90;;
16093;SDS011;8151;47.824;12.092;2022-10-31T09:56:33;9.70;;;3.70;;
16093;SDS011;8151;47.824;12.092;2022-10-31T09:59:03;11.40;;;4.10;;
16093;SDS011;8151;47.824;12.092;2022-10-31T10:01:40;11.57;;;5.10;;
16093;SDS011;8151;47.824;12.092;2022-10-31T10:04:21;8.63;;;4.53;;
16093;SDS011;8151;47.824;12.092;2022-10-31T10:07:01;12.40;;;6.90;;
16093;SDS011;8151;47.824;12.092;2022-10-31T10:09:35;8.83;;;5.30;;
16093;SDS011;8151;47.824;12.092;2022-10-31T10:12:07;13.33;;;9.10;;
16093;SDS011;8151;47.824;12.092;2022-10-31T10:14:47;8.60;;;3.97;;
16093;SDS011;8151;47.824;12.092;2022-10-31T10:17:29;10.63;;;4.43;;
16093;SDS011;8151;47.824;12.092;2022-10-31T10:20:17;12.77;;;4.73;;
16093;SDS011;8151;47.824;12.092;2022-10-31T10:22:54;17.63;;;6.27;;
16093;SDS011;8151;47.824;12.092;2022-10-31T10:25:37;21.03;;;4.67;;
16093;SDS011;8151;47.824;12.092;2022-10-31T10:28:13;8.10;;;3.80;;
16093;SDS011;8151;47.824;12.092;2022-10-31T10:30:48;7.53;;;2.93;;
16093;SDS011;8151;47.824;12.092;2022-10-31T10:33:20;7.07;;;3.37;;
16093;SDS011;8151;47.824;12.092;2022-10-31T10:35:53;10.70;;;3.70;;
16093;SDS011;8151;47.824;12.092;2022-10-31T10:38:27;11.40;;;3.07;;
16093;SDS011;8151;47.824;12.092;2022-10-31T10:41:02;9.30;;;3.00;;
16093;SDS011;8151;47.824;12.092;2022-10-31T10:43:33;8.90;;;3.30;;
16093;SDS011;8151;47.824;12.092;2022-10-31T10:46:06;9.87;;;3.00;;
16093;SDS011;8151;47.824;12.092;2022-10-31T10:49:15;8.10;;;3.53;;
16093;SDS011;8151;47.824;12.092;2022-10-31T10:51:47;14.43;;;4.87;;
16093;SDS011;8151;47.824;12.092;2022-10-31T10:54:44;8.63;;;3.20;;
16093;SDS011;8151;47.824;12.092;2022-10-31T10:57:30;11.10;;;3.37;;
16093;SDS011;8151;47.824;12.092;2022-10-31T11:00:14;10.17;;;3.10;;
16093;SDS011;8151;47.824;12.092;2022-10-31T11:02:45;10.77;;;2.80;;
16093;SDS011;8151;47.824;12.092;2022-10-31T11:05:18;7.67;;;2.83;;
16093;SDS011;8151;47.824;12.092;2022-10-31T11:07:52;5.37;;;2.33;;
16093;SDS011;8151;47.824;12.092;2022-10-31T11:10:21;11.80;;;3.00;;
16093;SDS011;8151;47.824;12.092;2022-10-31T11:13:14;11.17;;;4.30;;
16093;SDS011;8151;47.824;12.092;2022-10-31T11:16:31;5.70;;;2.70;;
16093;SDS011;8151;47.824;12.092;2022-10-31T11:19:08;6.33;;;2.80;;
16093;SDS011;8151;47.824;12.092;2022-10-31T11:21:44;9.63;;;3.20;;
16093;SDS011;8151;47.824;12.092;2022-10-31T11:24:23;8.90;;;3.10;;
16093;SDS011;8151;47.824;12.092;2022-10-31T11:27:03;8.10;;;2.90;;
16093;SDS011;8151;47.824;12.092;2022-10-31T11:29:39;7.07;;;3.13;;
16093;SDS011;8151;47.824;12.092;2022-10-31T11:32:08;7.10;;;3.20;;
16093;SDS011;8151;47.824;12.092;2022-10-31T11:34:47;11.50;;;3.40;;
16093;SDS011;8151;47.824;12.092;2022-10-31T11:37:18;5.97;;;3.13;;
16093;SDS011;8151;47.824;12.092;2022-10-31T11:39:51;7.77;;;2.70;;
16093;SDS011;8151;47.824;12.092;2022-10-31T11:42:22;7.10;;;2.97;;
16093;SDS011;8151;47.824;12.092;2022-10-31T11:44:53;6.33;;;3.63;;
16093;SDS011;8151;47.824;12.092;2022-10-31T11:47:24;10.43;;;3.97;;
16093;SDS011;8151;47.824;12.092;2022-10-31T11:49:55;13.23;;;4.73;;
16093;SDS011;8151;47.824;12.092;2022-10-31T11:52:25;16.53;;;5.70;;
16093;SDS011;8151;47.824;12.092;2022-10-31T11:54:58;9.43;;;4.40;;
16093;SDS011;8151;47.824;12.092;2022-10-31T11:57:30;10.63;;;5.20;;
16093;SDS011;8151;47.824;12.092;2022-10-31T12:00:01;12.40;;;3.63;;
16093;SDS011;8151;47.824;12.092;2022-10-31T12:02:32;11.67;;;4.80;;
16093;SDS011;8151;47.824;12.092;2022-10-31T12:05:02;22.63;;;13.47;;
16093;SDS011;8151;47.824;12.092;2022-10-31T12:07:36;13.97;;;8.87;;
16093;SDS011;8151;47.824;12.092;2022-10-31T12:10:09;13.53;;;4.70;;
16093;SDS011;8151;47.824;12.092;2022-10-31T12:12:48;6.73;;;3.43;;
16093;SDS011;8151;47.824;12.092;2022-10-31T12:15:29;9.17;;;4.37;;
16093;SDS011;8151;47.824;12.092;2022-10-31T12:18:12;11.60;;;4.53;;
16093;SDS011;8151;47.824;12.092;2022-10-31T12:20:54;6.77;;;4.40;;
16093;SDS011;8151;47.824;12.092;2022-10-31T12:23:35;6.53;;;2.83;;
16093;SDS011;8151;47.824;12.092;2022-10-31T12:26:16;5.17;;;3.60;;
16093;SDS011;8151;47.824;12.092;2022-10-31T12:29:00;7.67;;;4.13;;
16093;SDS011;8151;47.824;12.092;2022-10-31T12:31:46;10.90;;;3.77;;
16093;SDS011;8151;47.824;12.092;2022-10-31T12:34:40;13.27;;;4.83;;
16093;SDS011;8151;47.824;12.092;2022-10-31T12:37:27;14.57;;;7.17;;
16093;SDS011;8151;47.824;12.092;2022-10-31T12:43:08;11.57;;;5.47;;
16093;SDS011;8151;47.824;12.092;2022-10-31T12:45:52;11.43;;;4.47;;
16093;SDS011;8151;47.824;12.092;2022-10-31T12:48:42;6.47;;;3.10;;
16093;SDS011;8151;47.824;12.092;2022-10-31T12:51:26;9.57;;;6.17;;
16093;SDS011;8151;47.824;12.092;2022-10-31T12:54:05;12.93;;;8.23;;
16093;SDS011;8151;47.824;12.092;2022-10-31T12:56:50;12.27;;;5.63;;
16093;SDS011;8151;47.824;12.092;2022-10-31T12:59:29;16.67;;;6.83;;
16093;SDS011;8151;47.824;12.092;2022-10-31T13:02:04;7.63;;;3.73;;
16093;SDS011;8151;47.824;12.092;2022-10-31T13:04:44;18.10;;;5.60;;
16093;SDS011;8151;47.824;12.092;2022-10-31T13:07:18;9.57;;;4.20;;
16093;SDS011;8151;47.824;12.092;2022-10-31T13:09:53;10.40;;;4.00;;
16093;SDS011;8151;47.824;12.092;2022-10-31T13:12:26;16.67;;;3.70;;
16093;SDS011;8151;47.824;12.092;2022-10-31T13:15:05;10.90;;;5.03;;
16093;SDS011;8151;47.824;12.092;2022-10-31T13:17:44;14.77;;;4.13;;
16093;SDS011;8151;47.824;12.092;2022-10-31T13:20:18;7.63;;;3.30;;
16093;SDS011;8151;47.824;12.092;2022-10-31T13:22:52;10.37;;;3.37;;
16093;SDS011;8151;47.824;12.092;2022-10-31T13:25:24;8.30;;;3.30;;
16093;SDS011;8151;47.824;12.092;2022-10-31T13:27:57;7.60;;;2.70;;
16093;SDS011;8151;47.824;12.092;2022-10-31T13:30:31;8.50;;;4.07;;
16093;SDS011;8151;47.824;12.092;2022-10-31T13:33:04;9.87;;;3.30;;
16093;SDS011;8151;47.824;12.092;2022-10-31T13:35:40;12.50;;;7.37;;
16093;SDS011;8151;47.824;12.092;2022-10-31T13:38:19;13.80;;;6.27;;
16093;SDS011;8151;47.824;12.092;2022-10-31T13:40:53;13.70;;;5.03;;
16093;SDS011;8151;47.824;12.092;2022-10-31T13:43:30;15.67;;;8.27;;
16093;SDS011;8151;47.824;12.092;2022-10-31T13:48:59;13.00;;;7.33;;
16093;SDS011;8151;47.824;12.092;2022-10-31T13:51:28;21.80;;;12.23;;
16093;SDS011;8151;47.824;12.092;2022-10-31T13:53:58;14.00;;;6.70;;
16093;SDS011;8151;47.824;12.092;2022-10-31T13:56:28;14.53;;;6.83;;
16093;SDS011;8151;47.824;12.092;2022-10-31T13:58:59;11.30;;;5.83;;
16093;SDS011;8151;47.824;12.092;2022-10-31T14:01:31;8.83;;;3.33;;
16093;SDS011;8151;47.824;12.092;2022-10-31T14:04:04;11.50;;;5.10;;
16093;SDS011;8151;47.824;12.092;2022-10-31T14:06:45;10.63;;;3.40;;
16093;SDS011;8151;47.824;12.092;2022-10-31T14:09:26;9.07;;;3.00;;
16093;SDS011;8151;47.824;12.092;2022-10-31T14:11:58;10.07;;;3.00;;
16093;SDS011;8151;47.824;12.092;2022-10-31T14:14:31;10.27;;;7.23;;
16093;SDS011;8151;47.824;12.092;2022-10-31T14:17:12;6.50;;;2.60;;
16093;SDS011;8151;47.824;12.092;2022-10-31T14:20:03;12.97;;;3.67;;
16093;SDS011;8151;47.824;12.092;2022-10-31T14:22:50;7.40;;;3.20;;
16093;SDS011;8151;47.824;12.092;2022-10-31T14:25:25;8.33;;;2.67;;
16093;SDS011;8151;47.824;12.092;2022-10-31T14:27:55;12.03;;;2.90;;
16093;SDS011;8151;47.824;12.092;2022-10-31T14:30:26;6.07;;;2.93;;
16093;SDS011;8151;47.824;12.092;2022-10-31T14:32:57;12.83;;;3.87;;
16093;SDS011;8151;47.824;12.092;2022-10-31T14:35:32;15.33;;;5.70;;
16093;SDS011;8151;47.824;12.092;2022-10-31T14:38:20;18.23;;;5.13;;
16093;SDS011;8151;47.824;12.092;2022-10-31T14:44:20;12.57;;;3.93;;
16093;SDS011;8151;47.824;12.092;2022-10-31T14:47:20;8.13;;;2.17;;
16093;SDS011;8151;47.824;12.092;2022-10-31T14:50:04;9.83;;;2.57;;
16093;SDS011;8151;47.824;12.092;2022-10-31T14:52:46;7.57;;;3.17;;
16093;SDS011;8151;47.824;12.092;2022-10-31T14:55:19;10.97;;;5.17;;
16093;SDS011;8151;47.824;12.092;2022-10-31T14:57:49;18.90;;;11.47;;
16093;SDS011;8151;47.824;12.092;2022-10-31T15:00:20;12.27;;;3.93;;
16093;SDS011;8151;47.824;12.092;2022-10-31T15:02:59;13.40;;;6.70;;
16093;SDS011;8151;47.824;12.092;2022-10-31T15:05:41;6.93;;;2.47;;
16093;SDS011;8151;47.824;12.092;2022-10-31T15:08:26;12.13;;;4.13;;
16093;SDS011;8151;47.824;12.092;2022-10-31T15:10:58;9.50;;;4.30;;
16093;SDS011;8151;47.824;12.092;2022-10-31T15:13:31;16.53;;;5.80;;
16093;SDS011;8151;47.824;12.092;2022-10-31T15:15:59;11.43;;;3.83;;
16093;SDS011;8151;47.824;12.092;2022-10-31T15:18:28;9.67;;;3.07;;
16093;SDS011;8151;47.824;12.092;2022-10-31T15:20:56;9.13;;;3.10;;
16093;SDS011;8151;47.824;12.092;2022-10-31T15:23:27;11.03;;;2.97;;
16093;SDS011;8151;47.824;12.092;2022-10-31T15:25:58;9.83;;;3.23;;
16093;SDS011;8151;47.824;12.092;2022-10-31T15:28:28;9.20;;;2.80;;
16093;SDS011;8151;47.824;12.092;2022-10-31T15:30:58;14.37;;;5.43;;
16093;SDS011;8151;47.824;12.092;2022-10-31T15:33:29;14.37;;;5.83;;
16093;SDS011;8151;47.824;12.092;2022-10-31T15:36:05;17.10;;;4.83;;
16093;SDS011;8151;47.824;12.092;2022-10-31T15:38:35;14.33;;;4.67;;